sensor_id;sensor_type;location;lat;lon;timestamp;P1;durP1;ratioP1;P2;durP2;ratioP2
6121;SDS011;3091;51.506;7.672;2023-04-15T00:00:53;14.57;;;14.07;;
6121;SDS011;3091;51.506;7.672;2023-04-15T00:03:19;15.20;;;14.70;;
6121;SDS011;3091;51.506;7.672;2023-04-15T00:05:45;15.53;;;15.03;;
6121;SDS011;3091;51.506;7.672;2023-04-15T00:08:11;16.07;;;15.57;;
6121;SDS011;3091;51.506;7.672;2023-04-15T00:10:37;16.43;;;15.83;;
6121;SDS011;3091;51.506;7.672;2023-04-15T00:13:06;16.80;;;16.20;;
6121;SDS011;3091;51.506;7.672;2023-04-15T00:15:32;16.60;;;16.00;;
6121;SDS011;3091;51.506;7.672;2023-04-15T00:17:58;17.00;;;16.40;;
6121;SDS011;3091;51.506;7.672;2023-04-15T00:20:24;17.50;;;16.90;;
6121;SDS011;3091;51.506;7.672;2023-04-15T00:22:50;17.80;;;17.10;;
6121;SDS011;3091;51.506;7.672;2023-04-15T00:25:16;18.37;;;17.70;;
6121;SDS011;3091;51.506;7.672;2023-04-15T00:27:42;18.10;;;17.50;;
6121;SDS011;3091;51.506;7.672;2023-04-15T00:30:08;18.93;;;18.13;;
6121;SDS011;3091;51.506;7.672;2023-04-15T00:32:35;18.20;;;17.60;;
6121;SDS011;3091;51.506;7.672;2023-04-15T00:35:03;19.10;;;18.40;;
6121;SDS011;3091;51.506;7.672;2023-04-15T00:37:29;18.73;;;18.03;;
6121;SDS011;3091;51.506;7.672;2023-04-15T00:39:56;18.10;;;17.50;;
6121;SDS011;3091;51.506;7.672;2023-04-15T00:42:21;19.03;;;18.33;;
6121;SDS011;3091;51.506;7.672;2023-04-15T00:44:48;18.60;;;17.90;;
6121;SDS011;3091;51.506;7.672;2023-04-15T00:47:14;18.27;;;17.60;;
6121;SDS011;3091;51.506;7.672;2023-04-15T00:49:41;18.60;;;17.90;;
6121;SDS011;3091;51.506;7.672;2023-04-15T00:52:07;18.90;;;18.20;;
6121;SDS011;3091;51.506;7.672;2023-04-15T00:54:33;18.40;;;17.70;;
6121;SDS011;3091;51.506;7.672;2023-04-15T00:57:01;19.00;;;18.30;;
6121;SDS011;3091;51.506;7.672;2023-04-15T00:59:29;19.27;;;18.47;;
6121;SDS011;3091;51.506;7.672;2023-04-15T01:01:56;18.40;;;17.70;;
6121;SDS011;3091;51.506;7.672;2023-04-15T01:04:22;17.83;;;17.13;;
6121;SDS011;3091;51.506;7.672;2023-04-15T01:06:48;18.13;;;17.43;;
6121;SDS011;3091;51.506;7.672;2023-04-15T01:09:14;17.77;;;17.07;;
6121;SDS011;3091;51.506;7.672;2023-04-15T01:11:40;18.90;;;18.20;;
6121;SDS011;3091;51.506;7.672;2023-04-15T01:14:09;19.13;;;18.43;;
6121;SDS011;3091;51.506;7.672;2023-04-15T01:16:36;18.47;;;17.77;;
6121;SDS011;3091;51.506;7.672;2023-04-15T01:19:05;18.40;;;17.70;;
6121;SDS011;3091;51.506;7.672;2023-04-15T01:21:31;18.50;;;17.80;;
6121;SDS011;3091;51.506;7.672;2023-04-15T01:23:57;19.37;;;18.67;;
6121;SDS011;3091;51.506;7.672;2023-04-15T01:26:24;18.30;;;17.60;;
6121;SDS011;3091;51.506;7.672;2023-04-15T01:28:51;18.67;;;17.97;;
6121;SDS011;3091;51.506;7.672;2023-04-15T01:31:17;18.50;;;17.80;;
6121;SDS011;3091;51.506;7.672;2023-04-15T01:33:44;18.60;;;17.90;;
6121;SDS011;3091;51.506;7.672;2023-04-15T01:36:11;18.70;;;18.00;;
6121;SDS011;3091;51.506;7.672;2023-04-15T01:38:37;19.00;;;18.30;;
6121;SDS011;3091;51.506;7.672;2023-04-15T01:41:03;19.10;;;18.40;;
6121;SDS011;3091;51.506;7.672;2023-04-15T01:43:31;18.57;;;17.87;;
6121;SDS011;3091;51.506;7.672;2023-04-15T01:45:57;18.90;;;18.20;;
6121;SDS011;3091;51.506;7.672;2023-04-15T01:48:23;18.70;;;18.00;;
6121;SDS011;3091;51.506;7.672;2023-04-15T01:50:49;18.50;;;17.80;;
6121;SDS011;3091;51.506;7.672;2023-04-15T01:53:16;17.70;;;17.00;;
6121;SDS011;3091;51.506;7.672;2023-04-15T01:55:42;17.90;;;17.20;;
6121;SDS011;3091;51.506;7.672;2023-04-15T01:58:08;18.57;;;17.87;;
6121;SDS011;3091;51.506;7.672;2023-04-15T02:00:37;18.10;;;17.40;;
6121;SDS011;3091;51.506;7.672;2023-04-15T02:03:03;18.97;;;18.17;;
6121;SDS011;3091;51.506;7.672;2023-04-15T02:05:29;19.17;;;18.37;;
6121;SDS011;3091;51.506;7.672;2023-04-15T02:07:55;19.20;;;18.50;;
6121;SDS011;3091;51.506;7.672;2023-04-15T02:10:21;19.73;;;18.93;;
6121;SDS011;3091;51.506;7.672;2023-04-15T02:12:47;20.07;;;19.27;;
6121;SDS011;3091;51.506;7.672;2023-04-15T02:15:13;19.87;;;19.07;;
6121;SDS011;3091;51.506;7.672;2023-04-15T02:17:39;19.80;;;19.00;;
6121;SDS011;3091;51.506;7.672;2023-04-15T02:20:09;19.33;;;18.53;;
6121;SDS011;3091;51.506;7.672;2023-04-15T02:22:35;19.30;;;18.50;;
6121;SDS011;3091;51.506;7.672;2023-04-15T02:25:01;19.20;;;18.40;;
6121;SDS011;3091;51.506;7.672;2023-04-15T02:27:28;19.10;;;18.30;;
6121;SDS011;3091;51.506;7.672;2023-04-15T02:29:54;19.20;;;18.40;;
6121;SDS011;3091;51.506;7.672;2023-04-15T02:32:20;18.90;;;18.10;;
6121;SDS011;3091;51.506;7.672;2023-04-15T02:34:50;18.57;;;17.80;;
6121;SDS011;3091;51.506;7.672;2023-04-15T02:37:17;17.40;;;16.70;;
6121;SDS011;3091;51.506;7.672;2023-04-15T02:39:44;17.47;;;16.77;;
6121;SDS011;3091;51.506;7.672;2023-04-15T02:42:10;18.00;;;17.30;;
6121;SDS011;3091;51.506;7.672;2023-04-15T02:44:37;18.37;;;17.60;;
6121;SDS011;3091;51.506;7.672;2023-04-15T02:47:03;18.70;;;17.90;;
6121;SDS011;3091;51.506;7.672;2023-04-15T02:49:33;18.70;;;17.90;;
6121;SDS011;3091;51.506;7.672;2023-04-15T02:51:59;19.20;;;18.40;;
6121;SDS011;3091;51.506;7.672;2023-04-15T02:54:25;18.90;;;18.10;;
6121;SDS011;3091;51.506;7.672;2023-04-15T02:56:52;18.90;;;18.10;;
6121;SDS011;3091;51.506;7.672;2023-04-15T02:59:22;18.50;;;17.70;;
6121;SDS011;3091;51.506;7.672;2023-04-15T03:01:48;18.30;;;17.50;;
6121;SDS011;3091;51.506;7.672;2023-04-15T03:04:14;18.60;;;17.80;;
6121;SDS011;3091;51.506;7.672;2023-04-15T03:06:40;19.00;;;18.20;;
6121;SDS011;3091;51.506;7.672;2023-04-15T03:09:06;19.47;;;18.67;;
6121;SDS011;3091;51.506;7.672;2023-04-15T03:11:32;19.30;;;18.50;;
6121;SDS011;3091;51.506;7.672;2023-04-15T03:13:59;19.67;;;18.87;;
6121;SDS011;3091;51.506;7.672;2023-04-15T03:16:25;18.50;;;17.70;;
6121;SDS011;3091;51.506;7.672;2023-04-15T03:18:54;18.30;;;17.50;;
6121;SDS011;3091;51.506;7.672;2023-04-15T03:21:20;18.60;;;17.80;;
6121;SDS011;3091;51.506;7.672;2023-04-15T03:23:47;18.17;;;17.47;;
6121;SDS011;3091;51.506;7.672;2023-04-15T03:26:22;17.50;;;16.80;;
6121;SDS011;3091;51.506;7.672;2023-04-15T03:28:49;17.83;;;17.13;;
6121;SDS011;3091;51.506;7.672;2023-04-15T03:31:15;17.73;;;17.03;;
6121;SDS011;3091;51.506;7.672;2023-04-15T03:33:41;17.40;;;16.70;;
6121;SDS011;3091;51.506;7.672;2023-04-15T03:36:07;17.90;;;17.20;;
6121;SDS011;3091;51.506;7.672;2023-04-15T03:38:33;19.13;;;17.87;;
6121;SDS011;3091;51.506;7.672;2023-04-15T03:40:59;17.80;;;17.10;;
6121;SDS011;3091;51.506;7.672;2023-04-15T03:43:25;20.33;;;19.33;;
6121;SDS011;3091;51.506;7.672;2023-04-15T03:45:51;18.30;;;17.50;;
6121;SDS011;3091;51.506;7.672;2023-04-15T03:48:17;19.63;;;18.70;;
6121;SDS011;3091;51.506;7.672;2023-04-15T03:50:43;19.37;;;18.47;;
6121;SDS011;3091;51.506;7.672;2023-04-15T03:53:10;21.33;;;20.23;;
6121;SDS011;3091;51.506;7.672;2023-04-15T03:55:36;18.80;;;18.00;;
6121;SDS011;3091;51.506;7.672;2023-04-15T03:58:02;18.83;;;18.03;;
6121;SDS011;3091;51.506;7.672;2023-04-15T04:00:28;19.83;;;18.93;;
6121;SDS011;3091;51.506;7.672;2023-04-15T04:02:54;19.10;;;18.30;;
6121;SDS011;3091;51.506;7.672;2023-04-15T04:05:20;20.03;;;19.13;;
6121;SDS011;3091;51.506;7.672;2023-04-15T04:07:46;19.60;;;18.70;;
6121;SDS011;3091;51.506;7.672;2023-04-15T04:10:12;19.40;;;18.50;;
6121;SDS011;3091;51.506;7.672;2023-04-15T04:12:38;19.70;;;18.80;;
6121;SDS011;3091;51.506;7.672;2023-04-15T04:15:06;19.20;;;18.30;;
6121;SDS011;3091;51.506;7.672;2023-04-15T04:17:33;19.60;;;18.70;;
6121;SDS011;3091;51.506;7.672;2023-04-15T04:19:59;19.80;;;18.90;;
6121;SDS011;3091;51.506;7.672;2023-04-15T04:22:25;19.70;;;18.80;;
6121;SDS011;3091;51.506;7.672;2023-04-15T04:24:51;20.00;;;19.10;;
6121;SDS011;3091;51.506;7.672;2023-04-15T04:27:17;25.87;;;24.00;;
6121;SDS011;3091;51.506;7.672;2023-04-15T04:29:43;20.83;;;19.70;;
6121;SDS011;3091;51.506;7.672;2023-04-15T04:32:11;19.07;;;18.17;;
6121;SDS011;3091;51.506;7.672;2023-04-15T04:34:37;19.00;;;18.10;;
6121;SDS011;3091;51.506;7.672;2023-04-15T04:37:03;19.13;;;18.23;;
6121;SDS011;3091;51.506;7.672;2023-04-15T04:39:29;19.50;;;18.60;;
6121;SDS011;3091;51.506;7.672;2023-04-15T04:41:56;19.30;;;18.40;;
6121;SDS011;3091;51.506;7.672;2023-04-15T04:44:22;19.67;;;18.77;;
6121;SDS011;3091;51.506;7.672;2023-04-15T04:46:48;18.67;;;17.77;;
6121;SDS011;3091;51.506;7.672;2023-04-15T04:49:14;18.00;;;17.20;;
6121;SDS011;3091;51.506;7.672;2023-04-15T04:51:40;18.10;;;17.30;;
6121;SDS011;3091;51.506;7.672;2023-04-15T04:54:06;18.20;;;17.40;;
6121;SDS011;3091;51.506;7.672;2023-04-15T04:56:35;18.33;;;17.50;;
6121;SDS011;3091;51.506;7.672;2023-04-15T04:59:05;18.70;;;17.80;;
6121;SDS011;3091;51.506;7.672;2023-04-15T05:01:31;19.20;;;18.30;;
6121;SDS011;3091;51.506;7.672;2023-04-15T05:03:58;19.60;;;18.70;;
6121;SDS011;3091;51.506;7.672;2023-04-15T05:06:24;19.57;;;18.67;;
6121;SDS011;3091;51.506;7.672;2023-04-15T05:08:51;19.90;;;19.00;;
6121;SDS011;3091;51.506;7.672;2023-04-15T05:11:19;20.20;;;19.20;;
6121;SDS011;3091;51.506;7.672;2023-04-15T05:13:45;20.13;;;19.13;;
6121;SDS011;3091;51.506;7.672;2023-04-15T05:16:11;20.20;;;19.20;;
6121;SDS011;3091;51.506;7.672;2023-04-15T05:18:37;20.50;;;19.50;;
6121;SDS011;3091;51.506;7.672;2023-04-15T05:21:03;20.50;;;19.60;;
6121;SDS011;3091;51.506;7.672;2023-04-15T05:23:29;20.23;;;19.33;;
6121;SDS011;3091;51.506;7.672;2023-04-15T05:25:56;20.00;;;19.10;;
6121;SDS011;3091;51.506;7.672;2023-04-15T05:28:22;20.40;;;19.50;;
6121;SDS011;3091;51.506;7.672;2023-04-15T05:30:47;20.30;;;19.40;;
6121;SDS011;3091;51.506;7.672;2023-04-15T05:33:13;21.57;;;20.57;;
6121;SDS011;3091;51.506;7.672;2023-04-15T05:35:39;21.80;;;20.80;;
6121;SDS011;3091;51.506;7.672;2023-04-15T05:38:05;22.10;;;21.10;;
6121;SDS011;3091;51.506;7.672;2023-04-15T05:40:31;22.83;;;21.73;;
6121;SDS011;3091;51.506;7.672;2023-04-15T05:42:57;23.30;;;22.20;;
6121;SDS011;3091;51.506;7.672;2023-04-15T05:45:23;24.43;;;23.23;;
6121;SDS011;3091;51.506;7.672;2023-04-15T05:47:50;25.60;;;24.40;;
6121;SDS011;3091;51.506;7.672;2023-04-15T05:50:18;24.67;;;23.47;;
6121;SDS011;3091;51.506;7.672;2023-04-15T05:52:44;25.50;;;24.30;;
6121;SDS011;3091;51.506;7.672;2023-04-15T05:55:10;25.73;;;24.50;;
6121;SDS011;3091;51.506;7.672;2023-04-15T05:57:36;26.13;;;24.83;;
6121;SDS011;3091;51.506;7.672;2023-04-15T06:00:05;27.83;;;26.47;;
6121;SDS011;3091;51.506;7.672;2023-04-15T06:02:31;26.07;;;24.83;;
6121;SDS011;3091;51.506;7.672;2023-04-15T06:04:57;26.50;;;25.20;;
6121;SDS011;3091;51.506;7.672;2023-04-15T06:07:23;27.53;;;26.23;;
6121;SDS011;3091;51.506;7.672;2023-04-15T06:09:49;27.80;;;26.50;;
6121;SDS011;3091;51.506;7.672;2023-04-15T06:12:15;28.70;;;27.40;;
6121;SDS011;3091;51.506;7.672;2023-04-15T06:14:41;28.40;;;27.20;;
6121;SDS011;3091;51.506;7.672;2023-04-15T06:17:10;28.10;;;26.90;;
6121;SDS011;3091;51.506;7.672;2023-04-15T06:19:36;27.00;;;25.90;;
6121;SDS011;3091;51.506;7.672;2023-04-15T06:22:02;25.03;;;24.03;;
6121;SDS011;3091;51.506;7.672;2023-04-15T06:24:30;24.00;;;23.00;;
6121;SDS011;3091;51.506;7.672;2023-04-15T06:26:57;23.00;;;22.07;;
6121;SDS011;3091;51.506;7.672;2023-04-15T06:29:23;21.00;;;20.20;;
6121;SDS011;3091;51.506;7.672;2023-04-15T06:31:49;18.83;;;18.13;;
6121;SDS011;3091;51.506;7.672;2023-04-15T06:34:15;16.87;;;16.27;;
6121;SDS011;3091;51.506;7.672;2023-04-15T06:36:41;16.80;;;16.20;;
6121;SDS011;3091;51.506;7.672;2023-04-15T06:39:07;15.80;;;15.20;;
6121;SDS011;3091;51.506;7.672;2023-04-15T06:41:33;15.87;;;15.27;;
6121;SDS011;3091;51.506;7.672;2023-04-15T06:43:59;14.50;;;14.00;;
6121;SDS011;3091;51.506;7.672;2023-04-15T06:46:25;14.80;;;14.30;;
6121;SDS011;3091;51.506;7.672;2023-04-15T06:48:51;14.50;;;14.00;;
6121;SDS011;3091;51.506;7.672;2023-04-15T06:51:17;14.00;;;13.50;;
6121;SDS011;3091;51.506;7.672;2023-04-15T06:53:43;14.83;;;14.33;;
6121;SDS011;3091;51.506;7.672;2023-04-15T06:56:09;14.00;;;13.50;;
6121;SDS011;3091;51.506;7.672;2023-04-15T06:58:36;14.63;;;14.13;;
6121;SDS011;3091;51.506;7.672;2023-04-15T07:01:02;13.60;;;13.20;;
6121;SDS011;3091;51.506;7.672;2023-04-15T07:03:28;15.13;;;14.43;;
6121;SDS011;3091;51.506;7.672;2023-04-15T07:05:54;13.13;;;12.73;;
6121;SDS011;3091;51.506;7.672;2023-04-15T07:08:22;14.37;;;13.87;;
6121;SDS011;3091;51.506;7.672;2023-04-15T07:10:48;13.97;;;13.47;;
6121;SDS011;3091;51.506;7.672;2023-04-15T07:13:14;13.00;;;12.60;;
6121;SDS011;3091;51.506;7.672;2023-04-15T07:15:40;13.10;;;12.70;;
6121;SDS011;3091;51.506;7.672;2023-04-15T07:18:06;12.20;;;11.80;;
6121;SDS011;3091;51.506;7.672;2023-04-15T07:20:33;12.30;;;11.90;;
6121;SDS011;3091;51.506;7.672;2023-04-15T07:23:00;12.30;;;11.90;;
6121;SDS011;3091;51.506;7.672;2023-04-15T07:25:26;12.40;;;12.00;;
6121;SDS011;3091;51.506;7.672;2023-04-15T07:27:52;13.70;;;13.20;;
6121;SDS011;3091;51.506;7.672;2023-04-15T07:30:18;13.83;;;13.27;;
6121;SDS011;3091;51.506;7.672;2023-04-15T07:32:44;13.17;;;12.67;;
6121;SDS011;3091;51.506;7.672;2023-04-15T07:35:10;11.83;;;11.43;;
6121;SDS011;3091;51.506;7.672;2023-04-15T07:37:37;12.27;;;11.87;;
6121;SDS011;3091;51.506;7.672;2023-04-15T07:40:03;12.53;;;12.10;;
6121;SDS011;3091;51.506;7.672;2023-04-15T07:42:31;12.20;;;11.80;;
6121;SDS011;3091;51.506;7.672;2023-04-15T07:44:58;11.90;;;11.50;;
6121;SDS011;3091;51.506;7.672;2023-04-15T07:47:24;12.30;;;11.80;;
6121;SDS011;3091;51.506;7.672;2023-04-15T07:49:51;12.13;;;11.73;;
6121;SDS011;3091;51.506;7.672;2023-04-15T07:52:17;11.40;;;11.00;;
6121;SDS011;3091;51.506;7.672;2023-04-15T07:54:43;11.30;;;10.90;;
6121;SDS011;3091;51.506;7.672;2023-04-15T07:57:10;11.87;;;11.47;;
6121;SDS011;3091;51.506;7.672;2023-04-15T07:59:38;11.87;;;11.47;;
6121;SDS011;3091;51.506;7.672;2023-04-15T08:02:06;10.80;;;10.50;;
6121;SDS011;3091;51.506;7.672;2023-04-15T08:04:32;11.57;;;11.17;;
6121;SDS011;3091;51.506;7.672;2023-04-15T08:06:58;13.60;;;12.90;;
6121;SDS011;3091;51.506;7.672;2023-04-15T08:09:24;12.73;;;12.13;;
6121;SDS011;3091;51.506;7.672;2023-04-15T08:11:51;12.93;;;12.47;;
6121;SDS011;3091;51.506;7.672;2023-04-15T08:14:17;13.00;;;12.50;;
6121;SDS011;3091;51.506;7.672;2023-04-15T08:16:43;13.70;;;13.10;;
6121;SDS011;3091;51.506;7.672;2023-04-15T08:19:09;12.47;;;12.07;;
6121;SDS011;3091;51.506;7.672;2023-04-15T08:21:36;13.30;;;12.50;;
6121;SDS011;3091;51.506;7.672;2023-04-15T08:24:02;12.10;;;11.70;;
6121;SDS011;3091;51.506;7.672;2023-04-15T08:26:28;12.93;;;12.50;;
6121;SDS011;3091;51.506;7.672;2023-04-15T08:28:54;12.20;;;11.80;;
6121;SDS011;3091;51.506;7.672;2023-04-15T08:31:20;13.97;;;13.33;;
6121;SDS011;3091;51.506;7.672;2023-04-15T08:33:46;12.70;;;12.30;;
6121;SDS011;3091;51.506;7.672;2023-04-15T08:36:12;13.43;;;12.77;;
6121;SDS011;3091;51.506;7.672;2023-04-15T08:38:38;15.63;;;14.93;;
6121;SDS011;3091;51.506;7.672;2023-04-15T08:41:11;12.23;;;11.83;;
6121;SDS011;3091;51.506;7.672;2023-04-15T08:43:45;13.63;;;13.13;;
6121;SDS011;3091;51.506;7.672;2023-04-15T08:46:12;14.90;;;14.20;;
6121;SDS011;3091;51.506;7.672;2023-04-15T08:48:38;13.37;;;12.87;;
6121;SDS011;3091;51.506;7.672;2023-04-15T08:51:05;15.17;;;14.43;;
6121;SDS011;3091;51.506;7.672;2023-04-15T08:53:32;13.20;;;12.77;;
6121;SDS011;3091;51.506;7.672;2023-04-15T08:55:58;15.40;;;14.60;;
6121;SDS011;3091;51.506;7.672;2023-04-15T08:58:28;15.70;;;14.80;;
6121;SDS011;3091;51.506;7.672;2023-04-15T09:00:55;15.10;;;14.30;;
6121;SDS011;3091;51.506;7.672;2023-04-15T09:03:21;14.27;;;13.73;;
6121;SDS011;3091;51.506;7.672;2023-04-15T09:05:48;14.20;;;13.60;;
6121;SDS011;3091;51.506;7.672;2023-04-15T09:08:15;14.00;;;13.40;;
6121;SDS011;3091;51.506;7.672;2023-04-15T09:10:41;13.93;;;13.43;;
6121;SDS011;3091;51.506;7.672;2023-04-15T09:13:07;17.30;;;16.33;;
6121;SDS011;3091;51.506;7.672;2023-04-15T09:15:34;15.20;;;14.50;;
6121;SDS011;3091;51.506;7.672;2023-04-15T09:18:02;13.80;;;13.30;;
6121;SDS011;3091;51.506;7.672;2023-04-15T09:20:28;14.70;;;14.03;;
6121;SDS011;3091;51.506;7.672;2023-04-15T09:23:10;13.20;;;12.80;;
6121;SDS011;3091;51.506;7.672;2023-04-15T09:25:37;14.40;;;13.83;;
6121;SDS011;3091;51.506;7.672;2023-04-15T09:28:06;13.00;;;12.60;;
6121;SDS011;3091;51.506;7.672;2023-04-15T09:30:32;13.23;;;12.83;;
6121;SDS011;3091;51.506;7.672;2023-04-15T09:33:00;15.83;;;14.97;;
6121;SDS011;3091;51.506;7.672;2023-04-15T09:35:26;15.20;;;14.40;;
6121;SDS011;3091;51.506;7.672;2023-04-15T09:38:00;14.23;;;13.63;;
6121;SDS011;3091;51.506;7.672;2023-04-15T09:40:31;13.50;;;13.10;;
6121;SDS011;3091;51.506;7.672;2023-04-15T09:43:00;14.90;;;14.30;;
6121;SDS011;3091;51.506;7.672;2023-04-15T09:45:27;15.73;;;15.10;;
6121;SDS011;3091;51.506;7.672;2023-04-15T09:47:53;14.77;;;14.13;;
6121;SDS011;3091;51.506;7.672;2023-04-15T09:50:19;14.23;;;13.63;;
6121;SDS011;3091;51.506;7.672;2023-04-15T09:52:46;12.93;;;12.53;;
6121;SDS011;3091;51.506;7.672;2023-04-15T09:55:13;16.07;;;15.47;;
6121;SDS011;3091;51.506;7.672;2023-04-15T09:57:40;16.17;;;15.47;;
6121;SDS011;3091;51.506;7.672;2023-04-15T10:00:08;15.07;;;14.47;;
6121;SDS011;3091;51.506;7.672;2023-04-15T10:02:35;17.00;;;16.27;;
6121;SDS011;3091;51.506;7.672;2023-04-15T10:05:02;14.10;;;13.60;;
6121;SDS011;3091;51.506;7.672;2023-04-15T10:07:28;15.07;;;14.50;;
6121;SDS011;3091;51.506;7.672;2023-04-15T10:09:57;15.67;;;15.07;;
6121;SDS011;3091;51.506;7.672;2023-04-15T10:12:26;14.43;;;13.93;;
6121;SDS011;3091;51.506;7.672;2023-04-15T10:14:57;16.10;;;15.40;;
6121;SDS011;3091;51.506;7.672;2023-04-15T10:17:24;16.60;;;15.80;;
6121;SDS011;3091;51.506;7.672;2023-04-15T10:19:53;15.70;;;15.10;;
6121;SDS011;3091;51.506;7.672;2023-04-15T10:22:20;16.50;;;15.57;;
6121;SDS011;3091;51.506;7.672;2023-04-15T10:24:47;15.67;;;15.03;;
6121;SDS011;3091;51.506;7.672;2023-04-15T10:27:14;17.40;;;16.67;;
6121;SDS011;3091;51.506;7.672;2023-04-15T10:29:40;16.30;;;15.70;;
6121;SDS011;3091;51.506;7.672;2023-04-15T10:32:06;16.40;;;15.80;;
6121;SDS011;3091;51.506;7.672;2023-04-15T10:34:32;14.97;;;14.47;;
6121;SDS011;3091;51.506;7.672;2023-04-15T10:37:00;15.40;;;14.80;;
6121;SDS011;3091;51.506;7.672;2023-04-15T10:42:09;17.53;;;16.83;;
6121;SDS011;3091;51.506;7.672;2023-04-15T10:44:38;17.50;;;16.80;;
6121;SDS011;3091;51.506;7.672;2023-04-15T10:47:12;18.20;;;17.50;;
6121;SDS011;3091;51.506;7.672;2023-04-15T10:49:43;17.83;;;17.13;;
6121;SDS011;3091;51.506;7.672;2023-04-15T10:52:09;21.00;;;20.13;;
6121;SDS011;3091;51.506;7.672;2023-04-15T10:54:38;25.83;;;24.73;;
6121;SDS011;3091;51.506;7.672;2023-04-15T10:59:37;35.77;;;34.07;;
6121;SDS011;3091;51.506;7.672;2023-04-15T11:02:04;39.30;;;37.50;;
6121;SDS011;3091;51.506;7.672;2023-04-15T11:07:15;53.43;;;50.93;;
6121;SDS011;3091;51.506;7.672;2023-04-15T11:09:57;59.73;;;56.93;;
6121;SDS011;3091;51.506;7.672;2023-04-15T11:12:32;63.00;;;60.20;;
6121;SDS011;3091;51.506;7.672;2023-04-15T11:14:58;71.30;;;68.00;;
6121;SDS011;3091;51.506;7.672;2023-04-15T11:17:26;90.67;;;86.57;;
6121;SDS011;3091;51.506;7.672;2023-04-15T11:19:52;106.50;;;102.00;;
6121;SDS011;3091;51.506;7.672;2023-04-15T11:22:18;116.47;;;111.67;;
6121;SDS011;3091;51.506;7.672;2023-04-15T11:24:48;125.60;;;120.40;;
6121;SDS011;3091;51.506;7.672;2023-04-15T11:27:23;129.53;;;124.10;;
6121;SDS011;3091;51.506;7.672;2023-04-15T11:29:49;129.10;;;123.60;;
6121;SDS011;3091;51.506;7.672;2023-04-15T11:32:16;129.23;;;123.67;;
6121;SDS011;3091;51.506;7.672;2023-04-15T11:34:44;134.87;;;129.07;;
6121;SDS011;3091;51.506;7.672;2023-04-15T11:37:10;131.93;;;126.13;;
6121;SDS011;3091;51.506;7.672;2023-04-15T11:39:36;131.70;;;125.80;;
6121;SDS011;3091;51.506;7.672;2023-04-15T11:42:02;128.20;;;122.60;;
6121;SDS011;3091;51.506;7.672;2023-04-15T11:44:28;133.37;;;127.57;;
6121;SDS011;3091;51.506;7.672;2023-04-15T11:46:55;140.80;;;134.70;;
6121;SDS011;3091;51.506;7.672;2023-04-15T11:49:27;138.90;;;132.90;;
6121;SDS011;3091;51.506;7.672;2023-04-15T11:51:54;138.20;;;132.20;;
6121;SDS011;3091;51.506;7.672;2023-04-15T11:54:20;143.00;;;136.90;;
6121;SDS011;3091;51.506;7.672;2023-04-15T11:56:50;141.17;;;135.17;;
6121;SDS011;3091;51.506;7.672;2023-04-15T11:59:16;143.43;;;137.33;;
6121;SDS011;3091;51.506;7.672;2023-04-15T12:01:42;144.13;;;138.03;;
6121;SDS011;3091;51.506;7.672;2023-04-15T12:04:14;136.60;;;130.80;;
6121;SDS011;3091;51.506;7.672;2023-04-15T12:06:46;142.93;;;136.83;;
6121;SDS011;3091;51.506;7.672;2023-04-15T12:09:14;142.20;;;136.00;;
6121;SDS011;3091;51.506;7.672;2023-04-15T12:16:33;149.13;;;142.73;;
6121;SDS011;3091;51.506;7.672;2023-04-15T12:19:02;143.20;;;136.90;;
6121;SDS011;3091;51.506;7.672;2023-04-15T12:21:32;147.33;;;140.37;;
6121;SDS011;3091;51.506;7.672;2023-04-15T12:24:00;137.83;;;131.63;;
6121;SDS011;3091;51.506;7.672;2023-04-15T12:26:27;137.13;;;131.07;;
6121;SDS011;3091;51.506;7.672;2023-04-15T12:29:03;132.37;;;126.33;;
6121;SDS011;3091;51.506;7.672;2023-04-15T12:31:29;132.67;;;126.73;;
6121;SDS011;3091;51.506;7.672;2023-04-15T12:33:56;137.60;;;131.40;;
6121;SDS011;3091;51.506;7.672;2023-04-15T12:36:22;140.33;;;134.07;;
6121;SDS011;3091;51.506;7.672;2023-04-15T12:38:48;135.33;;;129.20;;
6121;SDS011;3091;51.506;7.672;2023-04-15T12:41:14;138.80;;;132.60;;
6121;SDS011;3091;51.506;7.672;2023-04-15T12:43:40;140.50;;;134.27;;
6121;SDS011;3091;51.506;7.672;2023-04-15T12:46:06;137.90;;;131.60;;
6121;SDS011;3091;51.506;7.672;2023-04-15T12:48:34;128.10;;;122.00;;
6121;SDS011;3091;51.506;7.672;2023-04-15T12:51:00;123.87;;;118.07;;
6121;SDS011;3091;51.506;7.672;2023-04-15T12:53:26;125.40;;;119.53;;
6121;SDS011;3091;51.506;7.672;2023-04-15T12:55:52;125.77;;;119.97;;
6121;SDS011;3091;51.506;7.672;2023-04-15T12:58:18;121.30;;;115.60;;
6121;SDS011;3091;51.506;7.672;2023-04-15T13:00:44;112.73;;;107.23;;
6121;SDS011;3091;51.506;7.672;2023-04-15T13:03:10;107.23;;;101.93;;
6121;SDS011;3091;51.506;7.672;2023-04-15T13:05:37;110.23;;;104.83;;
6121;SDS011;3091;51.506;7.672;2023-04-15T13:08:04;105.40;;;100.10;;
6121;SDS011;3091;51.506;7.672;2023-04-15T13:10:33;104.67;;;99.37;;
6121;SDS011;3091;51.506;7.672;2023-04-15T13:13:03;105.53;;;100.13;;
6121;SDS011;3091;51.506;7.672;2023-04-15T13:15:29;102.57;;;97.27;;
6121;SDS011;3091;51.506;7.672;2023-04-15T13:17:55;102.60;;;97.30;;
6121;SDS011;3091;51.506;7.672;2023-04-15T13:20:21;99.50;;;94.30;;
6121;SDS011;3091;51.506;7.672;2023-04-15T13:22:47;96.40;;;91.20;;
6121;SDS011;3091;51.506;7.672;2023-04-15T13:25:13;96.97;;;91.87;;
6121;SDS011;3091;51.506;7.672;2023-04-15T13:27:39;99.77;;;94.60;;
6121;SDS011;3091;51.506;7.672;2023-04-15T13:30:06;100.17;;;94.87;;
6121;SDS011;3091;51.506;7.672;2023-04-15T13:32:32;93.63;;;88.53;;
6121;SDS011;3091;51.506;7.672;2023-04-15T13:34:58;99.77;;;94.47;;
6121;SDS011;3091;51.506;7.672;2023-04-15T13:37:27;99.23;;;93.60;;
6121;SDS011;3091;51.506;7.672;2023-04-15T13:39:54;96.80;;;91.70;;
6121;SDS011;3091;51.506;7.672;2023-04-15T13:42:20;92.53;;;87.53;;
6121;SDS011;3091;51.506;7.672;2023-04-15T13:44:46;89.03;;;84.13;;
6121;SDS011;3091;51.506;7.672;2023-04-15T13:47:15;91.70;;;86.80;;
6121;SDS011;3091;51.506;7.672;2023-04-15T13:49:41;95.10;;;90.10;;
6121;SDS011;3091;51.506;7.672;2023-04-15T13:52:07;93.13;;;88.23;;
6121;SDS011;3091;51.506;7.672;2023-04-15T13:54:33;92.00;;;87.10;;
6121;SDS011;3091;51.506;7.672;2023-04-15T13:56:58;94.73;;;89.83;;
6121;SDS011;3091;51.506;7.672;2023-04-15T13:59:25;93.93;;;89.03;;
6121;SDS011;3091;51.506;7.672;2023-04-15T14:01:51;91.77;;;86.97;;
6121;SDS011;3091;51.506;7.672;2023-04-15T14:04:17;97.83;;;92.63;;
6121;SDS011;3091;51.506;7.672;2023-04-15T14:06:43;91.63;;;86.80;;
6121;SDS011;3091;51.506;7.672;2023-04-15T14:09:10;94.90;;;90.00;;
6121;SDS011;3091;51.506;7.672;2023-04-15T14:11:38;93.80;;;88.90;;
6121;SDS011;3091;51.506;7.672;2023-04-15T14:14:04;97.97;;;92.90;;
6121;SDS011;3091;51.506;7.672;2023-04-15T14:16:34;96.50;;;91.50;;
6121;SDS011;3091;51.506;7.672;2023-04-15T14:19:02;98.93;;;93.80;;
6121;SDS011;3091;51.506;7.672;2023-04-15T14:21:28;99.53;;;94.33;;
6121;SDS011;3091;51.506;7.672;2023-04-15T14:23:56;107.10;;;101.80;;
6121;SDS011;3091;51.506;7.672;2023-04-15T14:26:22;103.27;;;98.17;;
6121;SDS011;3091;51.506;7.672;2023-04-15T14:28:48;93.03;;;88.13;;
6121;SDS011;3091;51.506;7.672;2023-04-15T14:31:14;99.43;;;94.40;;
6121;SDS011;3091;51.506;7.672;2023-04-15T14:33:40;98.43;;;93.37;;
6121;SDS011;3091;51.506;7.672;2023-04-15T14:36:07;100.27;;;95.27;;
6121;SDS011;3091;51.506;7.672;2023-04-15T14:38:34;110.67;;;105.27;;
6121;SDS011;3091;51.506;7.672;2023-04-15T14:41:02;101.93;;;96.97;;
6121;SDS011;3091;51.506;7.672;2023-04-15T14:43:29;101.23;;;96.20;;
6121;SDS011;3091;51.506;7.672;2023-04-15T14:45:57;100.53;;;95.53;;
6121;SDS011;3091;51.506;7.672;2023-04-15T14:48:23;106.37;;;100.97;;
6121;SDS011;3091;51.506;7.672;2023-04-15T14:50:49;102.83;;;97.63;;
6121;SDS011;3091;51.506;7.672;2023-04-15T14:53:15;103.10;;;97.90;;